Skip Navigation Links
NOAA logo - Click to go to the NOAA homepage
NOAA's National Weather Service
Alaska Aviation Weather Unit
  NWS logo - Click to go to the NWS homepage
Left Navbar Graphic     17 AKDT = 01 GMT

   
NOAA is celebrating 200 years of science, service, and stewardship. Visit the NOAA 200th celebration Web site to learn more.
USA.gov is the U.S. Government's official Web portal to all Federal, state and local government Web resources and services.
Facebook
NWS on Facebook

Important Change Regarding the AAWU Web Presence

 

Over the last several months, the AAWU has been working to navigate its webpages to a nationally supported server. Security, as well as other needs, have necessitated the change.  In the process, we have made an effort to enhance the functionality of our website, as well as some of our products. As of June 27, 2017, aawu.arh.noaa.gov will be discontinued. The new AAWU web address is weather.gov/aawu. It is now live and will run in-parallel with the old site until it is discontinued. Please send any feedback or questions regarding the new webpages to nws.ar.aawu.webauthors@noaa.gov.  Thank you for your patience during this time of transition.
AAWU Home :: Display TAF Add Bookmark
METAR PASM 251956Z AUTO 18007KT 10SM OVC018 11/07 A2997 RMK AO2
 SLP168 T01060072=

METAR PASM 252056Z AUTO 13005KT 10SM OVC020 12/08 A2995 RMK AO2 SLP159
     T01170078 58018=

METAR PASM 252156Z AUTO 15007KT 110V180 10SM OVC020 13/08 A2993 RMK
 AO2 SLP153 T01280078=

SPECI PASM 252251Z AUTO 14007KT 10SM SCT024 14/08 A2991 RMK AO2=

METAR PASM 252256Z AUTO VRB05KT 10SM SCT024 14/08 A2991 RMK AO2
 SLP144 T01440078=

METAR PASM 252356Z AUTO VRB06KT 10SM FEW029 14/08 A2988 RMK AO2 SLP137
     T01440078 10150 20106 58016=


NOAA's National Weather Service
Alaska Aviation Weather Unit
6930 Sand Lake Road
Anchorage, AK 99502-1845
Disclaimer
Credits
Glossary
Privacy Policy
About Us
Career Opportunities
Contact AAWU Internet Services Site last modified: April, 17th 2012